4O4

Mc Curtain County Regional Airport

Idabel, Oklahoma, USA
METAR K4O4 260315Z AUTO 30009KT 10SM OVC040 10/07 A3005 RMK AO2
Observed Flight Rules
Apr-26 @ 03:15 UTC (16 minutes ago) Visual Flight Rules
Wind Visibility Clouds
300° at 9 knots 10 miles
  • Overcast at 4,000' AGL
Temperatures Readings
Current 10°C / 50°F
Dewpoint 7°C / 45°F
Humidity 82%
Altimeter 30.05" Hg
Pressure 1018 hPa
Elevation 144
METAR K4O4 260315Z AUTO 30009KT 10SM OVC040 10/07 A3005 RMK AO2
Observed Flight Rules
Apr-26 @ 03:15 UTC
(16 minutes ago)
VFR
Wind Visibility
300° at 9 knots 10 miles
Clouds
  • Overcast at 4,000' AGL
Temperature Dewpoint
10°C / 50°F 7°C / 45°F
Humidity Altimeter Pressure
82% 30.05" Hg 1018 hPa